Time;durP1;ratioP1;P1;durP2;ratioP2;P2;SDS_P1;SDS_P2;PMS_P1;PMS_P2;Temp;Humidity;BMP_temperature;BMP_pressure;BME280_temperature;BME280_humidity;BME280_pressure;Samples;Min_cycle;Max_cycle;Signal;HPM_P1;HPM_P2
2023/04/04 00:02:15;;;;;;;;;;;;;;;;;;137828;1272;22193;-83
2023/04/04 00:05:17;;;;;;;;;;;;;;;;;;137829;1272;22300;-83
2023/04/04 00:08:18;;;;;;;;;;;;;;;;;;137819;1272;22278;-83
2023/04/04 00:11:20;;;;;;;;;;;;;;;;;;137860;1272;22208;-82
2023/04/04 00:14:22;;;;;;;;;;;;;;;;;;137836;1272;22173;-83
2023/04/04 00:17:23;;;;;;;;;;;;;;;;;;137834;1272;22276;-83
2023/04/04 00:20:24;;;;;;;;;;;;;;;;;;137759;1272;22180;-83
2023/04/04 00:23:25;;;;;;;;;;;;;;;;;;137850;1272;22265;-83
2023/04/04 00:26:26;;;;;;;;;;;;;;;;;;137832;1272;22237;-83
2023/04/04 00:29:28;;;;;;;;;;;;;;;;;;137806;1272;22368;-83
2023/04/04 00:32:29;;;;;;;;;;;;;;;;;;137809;1272;22273;-84
2023/04/04 00:35:30;;;;;;;;;;;;;;;;;;137857;1272;22799;-82
2023/04/04 00:38:31;;;;;;;;;;;;;;;;;;137768;1272;22734;-82
2023/04/04 00:41:32;;;;;;;;;;;;;;;;;;137776;1272;22319;-82
2023/04/04 00:47:55;;;;;;;;;;;;;;;;;;137780;1272;22283;-82
2023/04/04 00:50:56;;;;;;;;;;;;;;;;;;137758;1272;22787;-82
2023/04/04 00:53:57;;;;;;;;;;;;;;;;;;137797;1272;22259;-81
2023/04/04 00:56:58;;;;;;;;;;;;;;;;;;137794;1272;22283;-81
2023/04/04 00:59:59;;;;;;;;;;;;;;;;;;137804;1272;22276;-81
2023/04/04 01:03:01;;;;;;;;;;;;;;;;;;137805;1272;22407;-81
2023/04/04 01:06:02;;;;;;;;;;;;;;;;;;137847;1272;22307;-82
2023/04/04 01:09:03;;;;;;;;;;;;;;;;;;137851;1272;22766;-82
2023/04/04 01:12:04;;;;;;;;;;;;;;;;;;137828;1272;22290;-82
2023/04/04 01:15:08;;;;;;;;;;;;;;;;;;137802;1272;22767;-82
2023/04/04 01:18:09;;;;;;;;;;;;;;;;;;137823;1272;22774;-82
2023/04/04 01:21:10;;;;;;;;;;;;;;;;;;137843;1272;22307;-82
2023/04/04 01:24:11;;;;;;;;;;;;;;;;;;137782;1272;22269;-82
2023/04/04 01:27:13;;;;;;;;;;;;;;;;;;137841;1272;22400;-82
2023/04/04 01:30:14;;;;;;;;;;;;;;;;;;137758;1272;22268;-81
2023/04/04 01:33:15;;;;;;;;;;;;;;;;;;137799;1272;22296;-83
2023/04/04 01:36:17;;;;;;;;;;;;;;;;;;137753;1272;22265;-81
2023/04/04 01:39:18;;;;;;;;;;;;;;;;;;137790;1272;22303;-81
2023/04/04 01:42:19;;;;;;;;;;;;;;;;;;137804;1272;22673;-80
2023/04/04 01:45:20;;;;;;;;;;;;;;;;;;137805;1272;22731;-81
2023/04/04 01:48:21;;;;;;;;;;;;;;;;;;137804;1272;22285;-81
2023/04/04 01:51:22;;;;;;;;;;;;;;;;;;137789;1272;22295;-81
2023/04/04 01:54:27;;;;;;;;;;;;;;;;;;137762;1272;22272;-81
2023/04/04 01:57:28;;;;;;;;;;;;;;;;;;137785;1272;22426;-82
2023/04/04 02:00:29;;;;;;;;;;;;;;;;;;137804;1272;22287;-81
2023/04/04 02:03:30;;;;;;;;;;;;;;;;;;137811;1272;22275;-82
2023/04/04 02:06:31;;;;;;;;;;;;;;;;;;137861;1272;22264;-82
2023/04/04 02:09:32;;;;;;;;;;;;;;;;;;137804;1272;22275;-82
2023/04/04 02:12:33;;;;;;;;;;;;;;;;;;137808;1272;22232;-82
2023/04/04 02:15:34;;;;;;;;;;;;;;;;;;137797;1272;22584;-82
2023/04/04 02:18:35;;;;;;;;;;;;;;;;;;137804;1272;22176;-82
2023/04/04 02:21:36;;;;;;;;;;;;;;;;;;137811;1272;22324;-82
2023/04/04 02:24:37;;;;;;;;;;;;;;;;;;137835;1272;22265;-81
2023/04/04 02:27:38;;;;;;;;;;;;;;;;;;137818;1272;22372;-81
2023/04/04 02:30:40;;;;;;;;;;;;;;;;;;137806;1272;22655;-80
2023/04/04 02:33:41;;;;;;;;;;;;;;;;;;137789;1272;22184;-81
2023/04/04 02:36:42;;;;;;;;;;;;;;;;;;137803;1272;22296;-81
2023/04/04 02:39:43;;;;;;;;;;;;;;;;;;137803;1272;22286;-81
2023/04/04 02:42:44;;;;;;;;;;;;;;;;;;137794;1272;22289;-81
2023/04/04 02:45:45;;;;;;;;;;;;;;;;;;137785;1272;22317;-81
2023/04/04 02:48:46;;;;;;;;;;;;;;;;;;137816;1272;22276;-80
2023/04/04 02:51:47;;;;;;;;;;;;;;;;;;137765;1272;22317;-80
2023/04/04 02:54:49;;;;;;;;;;;;;;;;;;137775;1272;22282;-81
2023/04/04 02:57:50;;;;;;;;;;;;;;;;;;137776;1272;22361;-80
2023/04/04 03:00:51;;;;;;;;;;;;;;;;;;137721;1269;22200;-81
2023/04/04 03:03:53;;;;;;;;;;;;;;;;;;137782;1272;22740;-80
2023/04/04 03:06:54;;;;;;;;;;;;;;;;;;137766;1272;22180;-81
2023/04/04 03:09:55;;;;;;;;;;;;;;;;;;137762;1272;22169;-77
2023/04/04 03:12:56;;;;;;;;;;;;;;;;;;137749;1272;22659;-81
2023/04/04 03:15:57;;;;;;;;;;;;;;;;;;137745;1272;22176;-81
2023/04/04 03:18:58;;;;;;;;;;;;;;;;;;137759;1272;22224;-80
2023/04/04 03:21:59;;;;;;;;;;;;;;;;;;137750;1272;22253;-80
2023/04/04 03:25:00;;;;;;;;;;;;;;;;;;137776;1272;22289;-80
2023/04/04 03:28:01;;;;;;;;;;;;;;;;;;137732;1267;22387;-80
2023/04/04 03:31:02;;;;;;;;;;;;;;;;;;137734;1272;22268;-79
2023/04/04 03:34:06;;;;;;;;;;;;;;;;;;137743;1272;22288;-79
2023/04/04 03:37:07;;;;;;;;;;;;;;;;;;137763;1272;22338;-80
2023/04/04 03:40:08;;;;;;;;;;;;;;;;;;137794;1272;22318;-79
2023/04/04 03:43:12;;;;;;;;;;;;;;;;;;137775;1272;22644;-79
2023/04/04 03:46:13;;;;;;;;;;;;;;;;;;137733;1272;22735;-81
2023/04/04 03:49:14;;;;;;;;;;;;;;;;;;137774;1272;22371;-81
2023/04/04 03:52:15;;;;;;;;;;;;;;;;;;137739;1272;22302;-81
2023/04/04 03:55:16;;;;;;;;;;;;;;;;;;137779;1272;22317;-81
2023/04/04 03:58:17;;;;;;;;;;;;;;;;;;137758;1272;22348;-81
2023/04/04 04:01:19;;;;;;;;;;;;;;;;;;137677;1272;22242;-81
2023/04/04 04:04:20;;;;;;;;;;;;;;;;;;137667;1272;22333;-81
2023/04/04 04:07:23;;;;;;;;;;;;;;;;;;137681;1272;22193;-81
2023/04/04 04:10:24;;;;;;;;;;;;;;;;;;137708;1272;22265;-81
2023/04/04 04:13:25;;;;;;;;;;;;;;;;;;137727;1272;22284;-80
2023/04/04 04:16:26;;;;;;;;;;;;;;;;;;137752;1272;22202;-81
2023/04/04 04:19:27;;;;;;;;;;;;;;;;;;137674;1272;22649;-80
2023/04/04 04:22:28;;;;;;;;;;;;;;;;;;137710;1272;22167;-81
2023/04/04 04:25:30;;;;;;;;;;;;;;;;;;137668;1272;22316;-81
2023/04/04 04:28:31;;;;;;;;;;;;;;;;;;137704;1272;22354;-81
2023/04/04 04:31:32;;;;;;;;;;;;;;;;;;137719;1272;22248;-80
2023/04/04 04:34:33;;;;;;;;;;;;;;;;;;137680;1272;22329;-80
2023/04/04 04:37:35;;;;;;;;;;;;;;;;;;137667;1272;22173;-80
2023/04/04 04:40:36;;;;;;;;;;;;;;;;;;137700;1272;22269;-82
2023/04/04 04:43:37;;;;;;;;;;;;;;;;;;137750;1272;22271;-80
2023/04/04 04:46:38;;;;;;;;;;;;;;;;;;137719;1272;22276;-79
2023/04/04 04:49:41;;;;;;;;;;;;;;;;;;137685;1272;22311;-81
2023/04/04 04:52:42;;;;;;;;;;;;;;;;;;137660;1272;22246;-78
2023/04/04 04:55:43;;;;;;;;;;;;;;;;;;137557;1272;22389;-80
2023/04/04 04:58:46;;;;;;;;;;;;;;;;;;137653;1272;22375;-80
2023/04/04 05:01:47;;;;;;;;;;;;;;;;;;137638;1272;22329;-80
2023/04/04 05:04:49;;;;;;;;;;;;;;;;;;137624;1272;22257;-79
2023/04/04 05:07:50;;;;;;;;;;;;;;;;;;137643;1272;22696;-82
2023/04/04 05:10:53;;;;;;;;;;;;;;;;;;137497;1272;280132;-77
2023/04/04 05:13:54;;;;;;;;;;;;;;;;;;137670;1272;22289;-80
2023/04/04 05:16:55;;;;;;;;;;;;;;;;;;137732;1272;22251;-80
2023/04/04 05:19:56;;;;;;;;;;;;;;;;;;137705;1272;22389;-79
2023/04/04 05:22:57;;;;;;;;;;;;;;;;;;137677;1272;22290;-80
2023/04/04 05:25:59;;;;;;;;;;;;;;;;;;137699;1272;22322;-80
2023/04/04 05:29:00;;;;;;;;;;;;;;;;;;137683;1272;22456;-80
2023/04/04 05:32:01;;;;;;;;;;;;;;;;;;137627;1272;22667;-79
2023/04/04 05:35:02;;;;;;;;;;;;;;;;;;137703;1272;22327;-80
2023/04/04 05:38:03;;;;;;;;;;;;;;;;;;137678;1272;22264;-79
2023/04/04 05:41:04;;;;;;;;;;;;;;;;;;137729;1269;22202;-80
2023/04/04 05:44:06;;;;;;;;;;;;;;;;;;137728;1269;22211;-77
2023/04/04 05:47:09;;;;;;;;;;;;;;;;;;137712;1272;22197;-79
2023/04/04 05:50:10;;;;;;;;;;;;;;;;;;137710;1272;22257;-78
2023/04/04 05:53:11;;;;;;;;;;;;;;;;;;137688;1272;22854;-80
2023/04/04 05:56:12;;;;;;;;;;;;;;;;;;137755;1272;22265;-80
2023/04/04 05:59:13;;;;;;;;;;;;;;;;;;137434;1272;22861;-80
2023/04/04 06:02:14;;;;;;;;;;;;;;;;;;137742;1272;22278;-81
2023/04/04 06:05:15;;;;;;;;;;;;;;;;;;137681;1272;22269;-79
2023/04/04 06:08:16;;;;;;;;;;;;;;;;;;137665;1272;22629;-79
2023/04/04 06:11:17;;;;;;;;;;;;;;;;;;137644;1272;22289;-79
2023/04/04 06:14:18;;;;;;;;;;;;;;;;;;137668;1272;22743;-81
2023/04/04 06:17:19;;;;;;;;;;;;;;;;;;137678;1272;22249;-79
2023/04/04 06:20:22;;;;;;;;;;;;;;;;;;137681;1272;22216;-79
2023/04/04 06:23:23;;;;;;;;;;;;;;;;;;137704;1272;22276;-79
2023/04/04 06:26:25;;;;;;;;;;;;;;;;;;137669;1272;22367;-81
2023/04/04 06:29:26;;;;;;;;;;;;;;;;;;137683;1272;22837;-80
2023/04/04 06:32:27;;;;;;;;;;;;;;;;;;137674;1272;22191;-79
2023/04/04 06:35:28;;;;;;;;;;;;;;;;;;137720;1263;22182;-80
2023/04/04 06:38:30;;;;;;;;;;;;;;;;;;137705;1272;22263;-80
2023/04/04 06:41:31;;;;;;;;;;;;;;;;;;137691;1272;22250;-80
2023/04/04 06:44:32;;;;;;;;;;;;;;;;;;137690;1272;22278;-80
2023/04/04 06:47:33;;;;;;;;;;;;;;;;;;137655;1272;22241;-79
2023/04/04 06:50:35;;;;;;;;;;;;;;;;;;137676;1272;22275;-80
2023/04/04 06:53:36;;;;;;;;;;;;;;;;;;137708;1272;22315;-79
2023/04/04 06:56:37;;;;;;;;;;;;;;;;;;137720;1272;22160;-80
2023/04/04 06:59:38;;;;;;;;;;;;;;;;;;137665;1272;22347;-80
2023/04/04 07:02:39;;;;;;;;;;;;;;;;;;137693;1272;22336;-80
2023/04/04 07:05:40;;;;;;;;;;;;;;;;;;137698;1272;22306;-81
2023/04/04 07:08:42;;;;;;;;;;;;;;;;;;137726;1272;22297;-80
2023/04/04 07:11:43;;;;;;;;;;;;;;;;;;137698;1272;22179;-80
2023/04/04 07:14:44;;;;;;;;;;;;;;;;;;137649;1272;22630;-80
2023/04/04 07:17:45;;;;;;;;;;;;;;;;;;137748;1272;22160;-81
2023/04/04 07:20:46;;;;;;;;;;;;;;;;;;137764;1272;22274;-83
2023/04/04 07:23:49;;;;;;;;;;;;;;;;;;137741;1272;22263;-82
2023/04/04 07:26:51;;;;;;;;;;;;;;;;;;137755;1272;22256;-83
2023/04/04 07:29:52;;;;;;;;;;;;;;;;;;137574;1262;22361;-82
2023/04/04 07:32:53;;;;;;;;;;;;;;;;;;137580;1272;22653;-82
2023/04/04 07:35:54;;;;;;;;;;;;;;;;;;137655;1272;22300;-84
2023/04/04 07:38:55;;;;;;;;;;;;;;;;;;137718;1272;22296;-82
2023/04/04 07:41:59;;;;;;;;;;;;;;;;;;137690;1272;22440;-84
2023/04/04 07:45:00;;;;;;;;;;;;;;;;;;137707;1272;22174;-83
2023/04/04 07:48:02;;;;;;;;;;;;;;;;;;137748;1272;22179;-83
2023/04/04 07:51:04;;;;;;;;;;;;;;;;;;137713;1272;22245;-83
2023/04/04 07:54:07;;;;;;;;;;;;;;;;;;137600;1272;22256;-84
2023/04/04 07:57:08;;;;;;;;;;;;;;;;;;137704;1272;22474;-84
2023/04/04 08:00:11;;;;;;;;;;;;;;;;;;137718;1272;22174;-84
2023/04/04 08:03:15;;;;;;;;;;;;;;;;;;137667;1272;22322;-83
2023/04/04 08:06:16;;;;;;;;;;;;;;;;;;137640;1272;22247;-83
2023/04/04 08:09:20;;;;;;;;;;;;;;;;;;137676;1272;22229;-82
2023/04/04 08:12:21;;;;;;;;;;;;;;;;;;137609;1272;22243;-81
2023/04/04 08:15:22;;;;;;;;;;;;;;;;;;137648;1272;22258;-81
2023/04/04 08:18:23;;;;;;;;;;;;;;;;;;137655;1272;22248;-78
2023/04/04 08:21:24;;;;;;;;;;;;;;;;;;137660;1272;22268;-81
2023/04/04 08:24:25;;;;;;;;;;;;;;;;;;137665;1272;22266;-82
2023/04/04 08:27:26;;;;;;;;;;;;;;;;;;137703;1272;22370;-81
2023/04/04 08:30:27;;;;;;;;;;;;;;;;;;137679;1272;22253;-80
2023/04/04 08:33:29;;;;;;;;;;;;;;;;;;137698;1272;22250;-81
2023/04/04 08:36:31;;;;;;;;;;;;;;;;;;137699;1272;22169;-81
2023/04/04 08:39:32;;;;;;;;;;;;;;;;;;137719;1272;22221;-81
2023/04/04 08:42:38;;;;;;;;;;;;;;;;;;137725;1272;22241;-83
2023/04/04 08:45:39;;;;;;;;;;;;;;;;;;137733;1272;22450;-81
2023/04/04 08:48:41;;;;;;;;;;;;;;;;;;137673;1272;22745;-82
2023/04/04 08:51:43;;;;;;;;;;;;;;;;;;137669;1272;22264;-84
2023/04/04 08:54:45;;;;;;;;;;;;;;;;;;137702;1263;22151;-82
2023/04/04 08:57:46;;;;;;;;;;;;;;;;;;137657;1272;22932;-82
2023/04/04 09:00:47;;;;;;;;;;;;;;;;;;137675;1272;23206;-82
2023/04/04 09:03:49;;;;;;;;;;;;;;;;;;137681;1272;22247;-84
2023/04/04 09:06:51;;;;;;;;;;;;;;;;;;137625;1272;22298;-81
2023/04/04 09:09:55;;;;;;;;;;;;;;;;;;137667;1272;22255;-82
2023/04/04 09:12:56;;;;;;;;;;;;;;;;;;137692;1272;22348;-83
2023/04/04 09:16:02;;;;;;;;;;;;;;;;;;137652;1272;22284;-84
2023/04/04 09:19:03;;;;;;;;;;;;;;;;;;137677;1272;22268;-80
2023/04/04 09:22:05;;;;;;;;;;;;;;;;;;137624;1272;22266;-83
2023/04/04 09:25:06;;;;;;;;;;;;;;;;;;137671;1272;22211;-81
2023/04/04 09:28:07;;;;;;;;;;;;;;;;;;137685;1272;22925;-80
2023/04/04 09:31:17;;;;;;;;;;;;;;;;;;137713;1272;22181;-83
2023/04/04 09:34:19;;;;;;;;;;;;;;;;;;137712;1272;22359;-83
2023/04/04 09:37:20;;;;;;;;;;;;;;;;;;137719;1272;22278;-84
2023/04/04 09:40:27;;;;;;;;;;;;;;;;;;137693;1272;22193;-84
2023/04/04 09:43:29;;;;;;;;;;;;;;;;;;137733;1272;22503;-83
2023/04/04 09:46:30;;;;;;;;;;;;;;;;;;137713;1272;22264;-81
2023/04/04 09:49:45;;;;;;;;;;;;;;;;;;137706;1272;22473;-84
2023/04/04 09:52:49;;;;;;;;;;;;;;;;;;137704;1272;22271;-81
2023/04/04 09:55:50;;;;;;;;;;;;;;;;;;137672;1272;22384;-80
2023/04/04 09:58:51;;;;;;;;;;;;;;;;;;137706;1272;22389;-82
2023/04/04 10:01:53;;;;;;;;;;;;;;;;;;137669;1272;22264;-82
2023/04/04 10:04:56;;;;;;;;;;;;;;;;;;137678;1272;22188;-83
2023/04/04 10:07:57;;;;;;;;;;;;;;;;;;137738;1272;22856;-83
2023/04/04 10:10:59;;;;;;;;;;;;;;;;;;137714;1272;22159;-85
2023/04/04 10:14:01;;;;;;;;;;;;;;;;;;137718;1272;22293;-85
2023/04/04 10:17:02;;;;;;;;;;;;;;;;;;137693;1272;22256;-86
2023/04/04 10:20:03;;;;;;;;;;;;;;;;;;137733;1272;22388;-85
2023/04/04 10:23:07;;;;;;;;;;;;;;;;;;137738;1272;22829;-83
2023/04/04 10:26:09;;;;;;;;;;;;;;;;;;137703;1272;22853;-84
2023/04/04 10:29:13;;;;;;;;;;;;;;;;;;137685;1272;22372;-85
2023/04/04 10:32:14;;;;;;;;;;;;;;;;;;137719;1272;23002;-83
2023/04/04 10:35:16;;;;;;;;;;;;;;;;;;137729;1272;22303;-81
2023/04/04 10:38:17;;;;;;;;;;;;;;;;;;137704;1272;22923;-82
2023/04/04 10:41:22;;;;;;;;;;;;;;;;;;137720;1272;22314;-84
2023/04/04 10:44:24;;;;;;;;;;;;;;;;;;137703;1270;22655;-83
2023/04/04 10:47:25;;;;;;;;;;;;;;;;;;137668;1272;22208;-84
2023/04/04 10:50:27;;;;;;;;;;;;;;;;;;137744;1272;22204;-83
2023/04/04 10:53:31;;;;;;;;;;;;;;;;;;137672;1272;22296;-84
2023/04/04 10:56:35;;;;;;;;;;;;;;;;;;137671;1272;22289;-84
2023/04/04 10:59:37;;;;;;;;;;;;;;;;;;137657;1272;22132;-83
2023/04/04 11:02:38;;;;;;;;;;;;;;;;;;137711;1272;22480;-86
2023/04/04 11:05:40;;;;;;;;;;;;;;;;;;137725;1272;22789;-86
2023/04/04 11:08:44;;;;;;;;;;;;;;;;;;137743;1272;22417;-86
2023/04/04 11:11:45;;;;;;;;;;;;;;;;;;137785;1272;22640;-87
2023/04/04 11:14:54;;;;;;;;;;;;;;;;;;137757;1272;22852;-86
2023/04/04 11:17:58;;;;;;;;;;;;;;;;;;137720;1272;22253;-86
2023/04/04 11:20:59;;;;;;;;;;;;;;;;;;137745;1272;22289;-85
2023/04/04 11:24:17;;;;;;;;;;;;;;;;;;137724;1272;22241;-85
2023/04/04 11:27:19;;;;;;;;;;;;;;;;;;137764;1272;22166;-83
2023/04/04 11:30:20;;;;;;;;;;;;;;;;;;137745;1272;22261;-85
2023/04/04 11:33:21;;;;;;;;;;;;;;;;;;137769;1269;22766;-85
2023/04/04 11:36:26;;;;;;;;;;;;;;;;;;137767;1272;22349;-86
2023/04/04 11:39:27;;;;;;;;;;;;;;;;;;137739;1267;22381;-86
2023/04/04 11:42:28;;;;;;;;;;;;;;;;;;137708;1272;22244;-83
2023/04/04 11:45:30;;;;;;;;;;;;;;;;;;137741;1268;22200;-83
2023/04/04 11:48:31;;;;;;;;;;;;;;;;;;137759;1272;22353;-83
2023/04/04 11:51:35;;;;;;;;;;;;;;;;;;137795;1266;22327;-83
2023/04/04 11:54:37;;;;;;;;;;;;;;;;;;137734;1272;22318;-86
2023/04/04 11:57:38;;;;;;;;;;;;;;;;;;137734;1272;22271;-83
2023/04/04 12:00:42;;;;;;;;;;;;;;;;;;137702;1272;22703;-85
2023/04/04 12:03:44;;;;;;;;;;;;;;;;;;137659;1272;22276;-84
2023/04/04 12:06:49;;;;;;;;;;;;;;;;;;137696;1272;22838;-84
2023/04/04 12:09:51;;;;;;;;;;;;;;;;;;137684;1272;22508;-82
2023/04/04 12:12:52;;;;;;;;;;;;;;;;;;137669;1272;22223;-82
2023/04/04 12:15:53;;;;;;;;;;;;;;;;;;137634;1272;22199;-83
2023/04/04 12:18:57;;;;;;;;;;;;;;;;;;137701;1260;22174;-82
2023/04/04 12:21:58;;;;;;;;;;;;;;;;;;137645;1272;22373;-82
2023/04/04 12:25:00;;;;;;;;;;;;;;;;;;137657;1268;22315;-83
2023/04/04 12:28:01;;;;;;;;;;;;;;;;;;137704;1272;22209;-81
2023/04/04 12:31:10;;;;;;;;;;;;;;;;;;137637;1272;23115;-83
2023/04/04 12:34:12;;;;;;;;;;;;;;;;;;137581;1272;22280;-81
2023/04/04 12:37:15;;;;;;;;;;;;;;;;;;137669;1260;22207;-85
2023/04/04 12:40:16;;;;;;;;;;;;;;;;;;137674;1272;22360;-82
2023/04/04 12:43:18;;;;;;;;;;;;;;;;;;137674;1272;22184;-83
2023/04/04 12:46:19;;;;;;;;;;;;;;;;;;137695;1272;22291;-83
2023/04/04 12:49:21;;;;;;;;;;;;;;;;;;137715;1253;22205;-82
2023/04/04 12:52:25;;;;;;;;;;;;;;;;;;137670;1272;22409;-83
2023/04/04 12:55:27;;;;;;;;;;;;;;;;;;137644;1272;22737;-83
2023/04/04 12:58:28;;;;;;;;;;;;;;;;;;137632;1272;22425;-82
2023/04/04 13:01:34;;;;;;;;;;;;;;;;;;137649;1266;22226;-83
2023/04/04 13:04:36;;;;;;;;;;;;;;;;;;137656;1272;23069;-82
2023/04/04 13:07:44;;;;;;;;;;;;;;;;;;137705;1272;22300;-83
2023/04/04 13:10:49;;;;;;;;;;;;;;;;;;137683;1272;22350;-83
2023/04/04 13:13:51;;;;;;;;;;;;;;;;;;137688;1272;22297;-84
2023/04/04 13:16:52;;;;;;;;;;;;;;;;;;137720;1272;22396;-83
2023/04/04 13:19:53;;;;;;;;;;;;;;;;;;137657;1272;22825;-84
2023/04/04 13:22:55;;;;;;;;;;;;;;;;;;137639;1272;23050;-83
2023/04/04 13:25:57;;;;;;;;;;;;;;;;;;137636;1272;23038;-84
2023/04/04 13:28:58;;;;;;;;;;;;;;;;;;137622;1261;22211;-84
2023/04/04 13:32:00;;;;;;;;;;;;;;;;;;137616;1272;23073;-82
2023/04/04 13:35:01;;;;;;;;;;;;;;;;;;137660;1272;22258;-83
2023/04/04 13:38:05;;;;;;;;;;;;;;;;;;137698;1272;22839;-83
2023/04/04 13:41:08;;;;;;;;;;;;;;;;;;137659;1272;22263;-81
2023/04/04 13:44:09;;;;;;;;;;;;;;;;;;137735;1272;22253;-84
2023/04/04 13:47:13;;;;;;;;;;;;;;;;;;137761;1272;22265;-83
2023/04/04 13:50:15;;;;;;;;;;;;;;;;;;137746;1272;22681;-83
2023/04/04 13:53:16;;;;;;;;;;;;;;;;;;137714;1272;22271;-83
2023/04/04 13:56:20;;;;;;;;;;;;;;;;;;137771;1272;22791;-83
2023/04/04 13:59:21;;;;;;;;;;;;;;;;;;137723;1272;22726;-82
2023/04/04 14:02:23;;;;;;;;;;;;;;;;;;137744;1268;22245;-81
2023/04/04 14:05:24;;;;;;;;;;;;;;;;;;137711;1267;22167;-82
2023/04/04 14:08:25;;;;;;;;;;;;;;;;;;137724;1265;22433;-82
2023/04/04 14:11:29;;;;;;;;;;;;;;;;;;137733;1272;22299;-83
2023/04/04 14:14:31;;;;;;;;;;;;;;;;;;137721;1272;22293;-82
2023/04/04 14:17:32;;;;;;;;;;;;;;;;;;137786;1272;22275;-83
2023/04/04 14:20:33;;;;;;;;;;;;;;;;;;137774;1272;22276;-78
2023/04/04 14:23:35;;;;;;;;;;;;;;;;;;137801;1272;22750;-82
2023/04/04 14:26:36;;;;;;;;;;;;;;;;;;137748;1272;22265;-81
2023/04/04 14:29:37;;;;;;;;;;;;;;;;;;137778;1272;23079;-83
2023/04/04 14:32:38;;;;;;;;;;;;;;;;;;137784;1272;22326;-83
2023/04/04 14:35:42;;;;;;;;;;;;;;;;;;137790;1266;22695;-84
2023/04/04 14:38:43;;;;;;;;;;;;;;;;;;137798;1272;22380;-83
2023/04/04 14:41:44;;;;;;;;;;;;;;;;;;137803;1272;22272;-83
2023/04/04 14:44:45;;;;;;;;;;;;;;;;;;137806;1272;22261;-83
2023/04/04 14:47:46;;;;;;;;;;;;;;;;;;137792;1272;22796;-85
2023/04/04 14:50:49;;;;;;;;;;;;;;;;;;137810;1272;22306;-82
2023/04/04 14:53:51;;;;;;;;;;;;;;;;;;137795;1272;22652;-82
2023/04/04 14:56:52;;;;;;;;;;;;;;;;;;137820;1272;22200;-82
2023/04/04 14:59:53;;;;;;;;;;;;;;;;;;137776;1272;22197;-83
2023/04/04 15:02:54;;;;;;;;;;;;;;;;;;137791;1272;22264;-85
2023/04/04 15:05:56;;;;;;;;;;;;;;;;;;137767;1272;22276;-83
2023/04/04 15:08:57;;;;;;;;;;;;;;;;;;137790;1272;22444;-83
2023/04/04 15:11:58;;;;;;;;;;;;;;;;;;137738;1272;22296;-82
2023/04/04 15:14:59;;;;;;;;;;;;;;;;;;137743;1272;22328;-76
2023/04/04 15:18:00;;;;;;;;;;;;;;;;;;137818;1272;22434;-82
2023/04/04 15:21:01;;;;;;;;;;;;;;;;;;137803;1272;22180;-80
2023/04/04 15:24:03;;;;;;;;;;;;;;;;;;137788;1272;22285;-82
2023/04/04 15:27:04;;;;;;;;;;;;;;;;;;137827;1266;22190;-83
2023/04/04 15:30:05;;;;;;;;;;;;;;;;;;137812;1272;22268;-80
2023/04/04 15:33:09;;;;;;;;;;;;;;;;;;137762;1272;22254;-81
2023/04/04 15:36:10;;;;;;;;;;;;;;;;;;137804;1272;22589;-82
2023/04/04 15:39:12;;;;;;;;;;;;;;;;;;137720;1272;22364;-80
2023/04/04 15:42:14;;;;;;;;;;;;;;;;;;137813;1272;22314;-84
2023/04/04 15:45:15;;;;;;;;;;;;;;;;;;137774;1272;22261;-82
2023/04/04 15:48:16;;;;;;;;;;;;;;;;;;137778;1272;22268;-83
2023/04/04 15:51:19;;;;;;;;;;;;;;;;;;137807;1272;22261;-83
2023/04/04 15:54:20;;;;;;;;;;;;;;;;;;137776;1266;22219;-84
2023/04/04 15:57:22;;;;;;;;;;;;;;;;;;137763;1272;22289;-83
2023/04/04 16:00:23;;;;;;;;;;;;;;;;;;137814;1272;22168;-83
2023/04/04 16:03:24;;;;;;;;;;;;;;;;;;137784;1272;22201;-84
2023/04/04 16:06:26;;;;;;;;;;;;;;;;;;137783;1272;22280;-82
2023/04/04 16:09:27;;;;;;;;;;;;;;;;;;137760;1272;22338;-82
2023/04/04 16:12:28;;;;;;;;;;;;;;;;;;137718;1267;22292;-83
2023/04/04 16:15:29;;;;;;;;;;;;;;;;;;137744;1272;22260;-83
2023/04/04 16:18:30;;;;;;;;;;;;;;;;;;137715;1265;22271;-82
2023/04/04 16:21:31;;;;;;;;;;;;;;;;;;137703;1272;22204;-83
2023/04/04 16:24:32;;;;;;;;;;;;;;;;;;137735;1272;22175;-82
2023/04/04 16:27:33;;;;;;;;;;;;;;;;;;137658;1272;22268;-82
2023/04/04 16:30:35;;;;;;;;;;;;;;;;;;137773;1272;22274;-81
2023/04/04 16:33:37;;;;;;;;;;;;;;;;;;137697;1272;22683;-81
2023/04/04 16:36:38;;;;;;;;;;;;;;;;;;137715;1272;22186;-82
2023/04/04 16:39:39;;;;;;;;;;;;;;;;;;137759;1272;22383;-82
2023/04/04 16:42:41;;;;;;;;;;;;;;;;;;137782;1266;22253;-81
2023/04/04 16:45:42;;;;;;;;;;;;;;;;;;137728;1272;22275;-82
2023/04/04 16:48:43;;;;;;;;;;;;;;;;;;137749;1272;22589;-82
2023/04/04 16:51:45;;;;;;;;;;;;;;;;;;137724;1272;22280;-82
2023/04/04 16:54:46;;;;;;;;;;;;;;;;;;137754;1272;22282;-82
2023/04/04 16:57:47;;;;;;;;;;;;;;;;;;137781;1272;22270;-83
2023/04/04 17:00:48;;;;;;;;;;;;;;;;;;137782;1272;22750;-82
2023/04/04 17:03:50;;;;;;;;;;;;;;;;;;137753;1272;22208;-84
2023/04/04 17:06:51;;;;;;;;;;;;;;;;;;137799;1266;22175;-83
2023/04/04 17:09:52;;;;;;;;;;;;;;;;;;137565;1272;307440;-82
2023/04/04 17:12:53;;;;;;;;;;;;;;;;;;137742;1272;22281;-83
2023/04/04 17:15:54;;;;;;;;;;;;;;;;;;137791;1272;22701;-85
2023/04/04 17:18:55;;;;;;;;;;;;;;;;;;137778;1272;22277;-81
2023/04/04 17:21:57;;;;;;;;;;;;;;;;;;137735;1272;22276;-82
2023/04/04 17:24:58;;;;;;;;;;;;;;;;;;137692;1266;22289;-82
2023/04/04 17:27:59;;;;;;;;;;;;;;;;;;137732;1272;22220;-82
2023/04/04 17:31:00;;;;;;;;;;;;;;;;;;137754;1272;22666;-82
2023/04/04 17:34:01;;;;;;;;;;;;;;;;;;137767;1272;22269;-84
2023/04/04 17:37:02;;;;;;;;;;;;;;;;;;137784;1272;22467;-84
2023/04/04 17:40:04;;;;;;;;;;;;;;;;;;137775;1272;22390;-82
2023/04/04 17:43:05;;;;;;;;;;;;;;;;;;137825;1272;22328;-83
2023/04/04 17:46:06;;;;;;;;;;;;;;;;;;137767;1272;22187;-83
2023/04/04 17:49:07;;;;;;;;;;;;;;;;;;137781;1272;23110;-83
2023/04/04 17:52:09;;;;;;;;;;;;;;;;;;137752;1272;22185;-83
2023/04/04 17:55:10;;;;;;;;;;;;;;;;;;137743;1272;22185;-83
2023/04/04 17:58:11;;;;;;;;;;;;;;;;;;137729;1272;22259;-82
2023/04/04 18:01:12;;;;;;;;;;;;;;;;;;137757;1272;22282;-83
2023/04/04 18:04:13;;;;;;;;;;;;;;;;;;137764;1272;22188;-82
2023/04/04 18:07:15;;;;;;;;;;;;;;;;;;137718;1272;22259;-82
2023/04/04 18:10:16;;;;;;;;;;;;;;;;;;137734;1272;22347;-82
2023/04/04 18:13:17;;;;;;;;;;;;;;;;;;137760;1272;22198;-83
2023/04/04 18:16:18;;;;;;;;;;;;;;;;;;137743;1268;22201;-82
2023/04/04 18:19:19;;;;;;;;;;;;;;;;;;137778;1272;22216;-81
2023/04/04 18:22:21;;;;;;;;;;;;;;;;;;137773;1272;22843;-82
2023/04/04 18:25:22;;;;;;;;;;;;;;;;;;137778;1272;22263;-82
2023/04/04 18:28:23;;;;;;;;;;;;;;;;;;137746;1272;22270;-82
2023/04/04 18:31:24;;;;;;;;;;;;;;;;;;137760;1272;22203;-82
2023/04/04 18:34:25;;;;;;;;;;;;;;;;;;137819;1272;22606;-81
2023/04/04 18:37:27;;;;;;;;;;;;;;;;;;137780;1272;22194;-81
2023/04/04 18:44:02;;;;;;;;;;;;;;;;;;132848;1311;544375;-81
2023/04/04 18:47:05;;;;;;;;;;;;;;;;;;135595;1286;26062;-81
2023/04/04 18:50:08;;;;;;;;;;;;;;;;;;136373;1286;22565;-82
2023/04/04 18:53:10;;;;;;;;;;;;;;;;;;135686;1282;22536;-81
2023/04/04 18:56:11;;;;;;;;;;;;;;;;;;136043;1280;292535;-82
2023/04/04 18:59:16;;;;;;;;;;;;;;;;;;136618;1275;22647;-81
2023/04/04 19:02:18;;;;;;;;;;;;;;;;;;136456;1275;22522;-82
2023/04/04 19:05:19;;;;;;;;;;;;;;;;;;136661;1275;23618;-81
2023/04/04 19:08:20;;;;;;;;;;;;;;;;;;137188;1275;22486;-80
2023/04/04 19:11:22;;;;;;;;;;;;;;;;;;137111;1275;22545;-82
2023/04/04 19:14:24;;;;;;;;;;;;;;;;;;136304;1275;22538;-82
2023/04/04 19:17:25;;;;;;;;;;;;;;;;;;136413;1275;22585;-82
2023/04/04 19:20:27;;;;;;;;;;;;;;;;;;137055;1275;22873;-80
2023/04/04 19:23:28;;;;;;;;;;;;;;;;;;136488;1275;22903;-82
2023/04/04 19:26:31;;;;;;;;;;;;;;;;;;136784;1272;22551;-81
2023/04/04 19:29:33;;;;;;;;;;;;;;;;;;136877;1272;23046;-81
2023/04/04 19:32:34;;;;;;;;;;;;;;;;;;136561;1272;22514;-82
2023/04/04 19:35:38;;;;;;;;;;;;;;;;;;137384;1272;23006;-82
2023/04/04 19:38:39;;;;;;;;;;;;;;;;;;137322;1272;22520;-82
2023/04/04 19:41:40;;;;;;;;;;;;;;;;;;137407;1272;22864;-81
2023/04/04 19:44:42;;;;;;;;;;;;;;;;;;137473;1272;22489;-82
2023/04/04 19:47:43;;;;;;;;;;;;;;;;;;137490;1272;22310;-81
2023/04/04 19:50:44;;;;;;;;;;;;;;;;;;137283;1272;22519;-81
2023/04/04 19:53:45;;;;;;;;;;;;;;;;;;136486;1272;22494;-80
2023/04/04 19:56:46;;;;;;;;;;;;;;;;;;136611;1273;22512;-80
2023/04/04 19:59:48;;;;;;;;;;;;;;;;;;137354;1266;22539;-80
2023/04/04 20:02:49;;;;;;;;;;;;;;;;;;137292;1273;22482;-80
2023/04/04 20:05:51;;;;;;;;;;;;;;;;;;137287;1270;22494;-81
2023/04/04 20:08:52;;;;;;;;;;;;;;;;;;137518;1273;22387;-79
2023/04/04 20:11:53;;;;;;;;;;;;;;;;;;137503;1273;22580;-79
2023/04/04 20:14:55;;;;;;;;;;;;;;;;;;137564;1273;22346;-81
2023/04/04 20:17:56;;;;;;;;;;;;;;;;;;137190;1273;22495;-80
2023/04/04 20:20:57;;;;;;;;;;;;;;;;;;137500;1273;22472;-81
2023/04/04 20:23:58;;;;;;;;;;;;;;;;;;137580;1272;22962;-81
2023/04/04 20:27:01;;;;;;;;;;;;;;;;;;137035;1272;22540;-80